sensor_id;sensor_type;location;lat;lon;timestamp;pressure;altitude;pressure_sealevel;temperature;humidity
61963;BME280;47927;42.646;23.096;2023-05-23T00:02:18;91918.78;;;11.75;59.36
61963;BME280;47927;42.646;23.096;2023-05-23T00:04:44;91933.69;;;11.82;59.57
61963;BME280;47927;42.646;23.096;2023-05-23T00:07:28;91969.16;;;12.08;59.36
61963;BME280;47927;42.646;23.096;2023-05-23T00:09:53;92013.56;;;12.08;60.16
61963;BME280;47927;42.646;23.096;2023-05-23T00:12:20;91977.88;;;11.14;62.28
61963;BME280;47927;42.646;23.096;2023-05-23T00:14:46;91922.97;;;10.78;63.33
61963;BME280;47927;42.646;23.096;2023-05-23T00:17:12;91997.81;;;11.76;61.79
61963;BME280;47927;42.646;23.096;2023-05-23T00:19:37;91971.69;;;11.69;60.98
61963;BME280;47927;42.646;23.096;2023-05-23T00:22:03;91970.59;;;11.80;60.68
61963;BME280;47927;42.646;23.096;2023-05-23T00:24:29;92003.47;;;11.99;60.52
61963;BME280;47927;42.646;23.096;2023-05-23T00:26:54;91966.50;;;11.76;60.46
61963;BME280;47927;42.646;23.096;2023-05-23T00:29:20;91982.59;;;11.96;59.95
61963;BME280;47927;42.646;23.096;2023-05-23T00:31:46;92011.69;;;12.05;60.21
61963;BME280;47927;42.646;23.096;2023-05-23T00:34:15;91917.22;;;11.42;60.40
61963;BME280;47927;42.646;23.096;2023-05-23T00:36:44;92003.47;;;11.96;60.67
61963;BME280;47927;42.646;23.096;2023-05-23T00:39:12;92009.81;;;12.02;60.47
61963;BME280;47927;42.646;23.096;2023-05-23T00:41:47;92002.00;;;12.02;60.25
61963;BME280;47927;42.646;23.096;2023-05-23T00:44:12;92017.97;;;11.90;60.70
61963;BME280;47927;42.646;23.096;2023-05-23T00:46:39;91999.72;;;11.86;60.70
61963;BME280;47927;42.646;23.096;2023-05-23T00:49:06;91988.13;;;11.73;60.83
61963;BME280;47927;42.646;23.096;2023-05-23T00:51:32;91990.41;;;11.85;60.49
61963;BME280;47927;42.646;23.096;2023-05-23T00:53:59;92007.19;;;11.91;60.92
61963;BME280;47927;42.646;23.096;2023-05-23T00:56:25;92006.81;;;11.96;60.54
61963;BME280;47927;42.646;23.096;2023-05-23T00:58:53;91932.16;;;11.45;60.46
61963;BME280;47927;42.646;23.096;2023-05-23T01:01:19;92007.94;;;11.99;60.44
61963;BME280;47927;42.646;23.096;2023-05-23T01:03:45;91974.72;;;11.78;60.24
61963;BME280;47927;42.646;23.096;2023-05-23T01:06:13;91911.25;;;11.41;59.93
61963;BME280;47927;42.646;23.096;2023-05-23T01:08:39;91937.03;;;11.57;59.96
61963;BME280;47927;42.646;23.096;2023-05-23T01:11:13;92004.59;;;12.02;60.19
61963;BME280;47927;42.646;23.096;2023-05-23T01:13:54;91924.69;;;11.51;60.33
61963;BME280;47927;42.646;23.096;2023-05-23T01:16:54;92007.94;;;12.02;60.32
61963;BME280;47927;42.646;23.096;2023-05-23T01:21:52;91998.56;;;11.76;60.55
61963;BME280;47927;42.646;23.096;2023-05-23T01:24:35;91999.72;;;11.86;60.65
61963;BME280;47927;42.646;23.096;2023-05-23T01:27:07;91999.28;;;11.80;60.73
61963;BME280;47927;42.646;23.096;2023-05-23T01:29:42;92002.69;;;11.81;60.64
61963;BME280;47927;42.646;23.096;2023-05-23T01:32:10;91992.59;;;11.72;60.64
61963;BME280;47927;42.646;23.096;2023-05-23T01:34:37;91997.78;;;11.69;60.11
61963;BME280;47927;42.646;23.096;2023-05-23T01:37:07;91995.56;;;11.74;60.19
61963;BME280;47927;42.646;23.096;2023-05-23T01:39:35;91879.09;;;10.94;60.25
61963;BME280;47927;42.646;23.096;2023-05-23T01:42:01;91990.34;;;11.67;59.72
61963;BME280;47927;42.646;23.096;2023-05-23T01:44:27;91962.69;;;11.41;60.02
61963;BME280;47927;42.646;23.096;2023-05-23T01:46:54;91923.91;;;11.22;60.25
61963;BME280;47927;42.646;23.096;2023-05-23T01:49:21;91985.47;;;11.55;60.36
61963;BME280;47927;42.646;23.096;2023-05-23T01:51:47;91948.38;;;11.03;61.00
61963;BME280;47927;42.646;23.096;2023-05-23T01:54:15;91941.59;;;10.80;61.75
61963;BME280;47927;42.646;23.096;2023-05-23T01:56:41;91937.88;;;10.81;61.71
61963;BME280;47927;42.646;23.096;2023-05-23T01:59:08;91914.34;;;10.63;62.21
61963;BME280;47927;42.646;23.096;2023-05-23T02:01:34;91971.56;;;11.22;61.74
61963;BME280;47927;42.646;23.096;2023-05-23T02:04:00;91952.13;;;10.98;61.71
61963;BME280;47927;42.646;23.096;2023-05-23T02:06:25;91947.25;;;10.93;62.07
61963;BME280;47927;42.646;23.096;2023-05-23T02:08:51;91931.19;;;10.80;62.07
61963;BME280;47927;42.646;23.096;2023-05-23T02:11:16;91897.66;;;10.71;62.04
61963;BME280;47927;42.646;23.096;2023-05-23T02:14:01;91902.88;;;10.82;61.30
61963;BME280;47927;42.646;23.096;2023-05-23T02:16:27;91927.53;;;11.03;60.07
61963;BME280;47927;42.646;23.096;2023-05-23T02:18:53;91985.00;;;11.31;60.16
61963;BME280;47927;42.646;23.096;2023-05-23T02:21:23;91945.06;;;11.06;60.45
61963;BME280;47927;42.646;23.096;2023-05-23T02:23:49;91955.53;;;11.13;60.65
61963;BME280;47927;42.646;23.096;2023-05-23T02:26:16;91940.56;;;10.99;61.16
61963;BME280;47927;42.646;23.096;2023-05-23T02:28:42;91921.16;;;10.89;60.95
61963;BME280;47927;42.646;23.096;2023-05-23T02:31:08;91970.78;;;11.18;60.75
61963;BME280;47927;42.646;23.096;2023-05-23T02:33:33;91977.53;;;11.30;60.26
61963;BME280;47927;42.646;23.096;2023-05-23T02:35:59;91869.97;;;10.42;60.77
61963;BME280;47927;42.646;23.096;2023-05-23T02:38:25;91905.47;;;10.75;61.05
61963;BME280;47927;42.646;23.096;2023-05-23T02:40:52;91976.06;;;11.25;61.01
61963;BME280;47927;42.646;23.096;2023-05-23T02:43:18;91953.66;;;11.13;60.64
61963;BME280;47927;42.646;23.096;2023-05-23T02:45:44;91966.69;;;11.17;60.31
61963;BME280;47927;42.646;23.096;2023-05-23T02:48:10;91909.19;;;10.74;60.29
61963;BME280;47927;42.646;23.096;2023-05-23T02:50:36;91899.84;;;10.69;60.42
61963;BME280;47927;42.646;23.096;2023-05-23T02:53:02;91933.41;;;10.85;60.67
61963;BME280;47927;42.646;23.096;2023-05-23T02:55:28;91949.13;;;11.00;60.56
61963;BME280;47927;42.646;23.096;2023-05-23T02:57:54;91949.88;;;11.00;60.51
61963;BME280;47927;42.646;23.096;2023-05-23T03:00:21;91827.78;;;10.15;60.28
61963;BME280;47927;42.646;23.096;2023-05-23T03:02:51;91976.03;;;11.22;60.77
61963;BME280;47927;42.646;23.096;2023-05-23T03:05:17;91974.53;;;11.17;60.65
61963;BME280;47927;42.646;23.096;2023-05-23T03:07:43;91950.97;;;10.92;62.28
61963;BME280;47927;42.646;23.096;2023-05-23T03:10:08;91976.38;;;11.13;62.53
61963;BME280;47927;42.646;23.096;2023-05-23T03:12:34;91957.34;;;11.02;63.04
61963;BME280;47927;42.646;23.096;2023-05-23T03:15:00;91883.44;;;10.62;63.12
61963;BME280;47927;42.646;23.096;2023-05-23T03:17:25;91947.72;;;11.24;62.20
61963;BME280;47927;42.646;23.096;2023-05-23T03:19:51;91789.47;;;10.15;62.29
61963;BME280;47927;42.646;23.096;2023-05-23T03:22:17;91973.91;;;11.49;62.98
61963;BME280;47927;42.646;23.096;2023-05-23T03:24:43;91913.47;;;11.29;62.82
61963;BME280;47927;42.646;23.096;2023-05-23T03:27:10;91862.75;;;10.98;63.16
61963;BME280;47927;42.646;23.096;2023-05-23T03:29:35;91933.28;;;11.62;62.77
61963;BME280;47927;42.646;23.096;2023-05-23T03:32:01;91926.94;;;11.59;61.27
61963;BME280;47927;42.646;23.096;2023-05-23T03:34:27;91956.47;;;11.92;60.99
61963;BME280;47927;42.646;23.096;2023-05-23T03:36:53;91893.41;;;11.54;61.00
61963;BME280;47927;42.646;23.096;2023-05-23T03:39:19;91948.25;;;11.97;61.92
61963;BME280;47927;42.646;23.096;2023-05-23T03:41:44;91935.97;;;12.05;62.83
61963;BME280;47927;42.646;23.096;2023-05-23T03:44:10;91991.88;;;12.72;62.39
61963;BME280;47927;42.646;23.096;2023-05-23T03:46:35;91992.19;;;13.06;62.28
61963;BME280;47927;42.646;23.096;2023-05-23T03:49:01;91923.13;;;12.89;61.88
61963;BME280;47927;42.646;23.096;2023-05-23T03:51:27;91886.50;;;13.00;61.72
61963;BME280;47927;42.646;23.096;2023-05-23T03:53:53;91991.72;;;14.10;60.97
61963;BME280;47927;42.646;23.096;2023-05-23T03:56:19;91918.97;;;13.83;61.03
61963;BME280;47927;42.646;23.096;2023-05-23T03:58:45;91994.16;;;14.84;61.05
61963;BME280;47927;42.646;23.096;2023-05-23T04:01:13;91989.91;;;14.97;56.33
61963;BME280;47927;42.646;23.096;2023-05-23T04:03:38;91992.25;;;15.22;57.65
61963;BME280;47927;42.646;23.096;2023-05-23T04:06:04;91982.38;;;15.67;56.08
61963;BME280;47927;42.646;23.096;2023-05-23T04:08:31;91896.03;;;15.42;53.97
61963;BME280;47927;42.646;23.096;2023-05-23T04:10:59;92003.72;;;16.51;53.05
61963;BME280;47927;42.646;23.096;2023-05-23T04:13:29;91849.88;;;16.19;51.76
61963;BME280;47927;42.646;23.096;2023-05-23T04:15:55;91933.84;;;17.73;49.46
61963;BME280;47927;42.646;23.096;2023-05-23T04:18:39;91998.34;;;19.45;46.41
61963;BME280;47927;42.646;23.096;2023-05-23T04:21:06;92000.91;;;20.67;42.61
61963;BME280;47927;42.646;23.096;2023-05-23T04:23:36;91974.38;;;22.02;40.44
61963;BME280;47927;42.646;23.096;2023-05-23T04:26:02;91901.56;;;22.90;37.29
61963;BME280;47927;42.646;23.096;2023-05-23T04:28:33;91959.09;;;23.66;36.18
61963;BME280;47927;42.646;23.096;2023-05-23T04:30:59;92000.59;;;24.76;35.26
61963;BME280;47927;42.646;23.096;2023-05-23T04:33:30;91925.69;;;24.74;33.33
61963;BME280;47927;42.646;23.096;2023-05-23T04:35:56;92008.47;;;25.58;32.72
61963;BME280;47927;42.646;23.096;2023-05-23T04:38:22;91925.09;;;24.79;32.68
61963;BME280;47927;42.646;23.096;2023-05-23T04:40:50;91945.53;;;25.21;32.87
61963;BME280;47927;42.646;23.096;2023-05-23T04:43:37;92009.25;;;25.73;32.48
61963;BME280;47927;42.646;23.096;2023-05-23T04:46:17;92014.44;;;25.53;32.97
61963;BME280;47927;42.646;23.096;2023-05-23T04:48:54;91994.88;;;24.60;33.88
61963;BME280;47927;42.646;23.096;2023-05-23T04:51:21;92006.41;;;23.35;36.54
61963;BME280;47927;42.646;23.096;2023-05-23T04:53:54;92008.25;;;22.29;39.18
61963;BME280;47927;42.646;23.096;2023-05-23T04:56:20;91991.59;;;21.10;41.19
61963;BME280;47927;42.646;23.096;2023-05-23T04:58:46;92015.00;;;20.77;41.93
61963;BME280;47927;42.646;23.096;2023-05-23T05:01:13;92010.00;;;20.40;43.30
61963;BME280;47927;42.646;23.096;2023-05-23T05:03:39;92012.34;;;20.38;43.62
61963;BME280;47927;42.646;23.096;2023-05-23T05:06:05;91994.59;;;20.26;43.72
61963;BME280;47927;42.646;23.096;2023-05-23T05:08:31;91935.75;;;19.84;42.89
61963;BME280;47927;42.646;23.096;2023-05-23T05:10:57;92012.47;;;20.35;43.15
61963;BME280;47927;42.646;23.096;2023-05-23T05:13:23;92012.44;;;20.86;42.31
61963;BME280;47927;42.646;23.096;2023-05-23T05:15:51;91934.06;;;21.10;40.73
61963;BME280;47927;42.646;23.096;2023-05-23T05:18:18;91948.31;;;23.61;36.27
61963;BME280;47927;42.646;23.096;2023-05-23T05:20:44;92003.72;;;26.51;32.23
61963;BME280;47927;42.646;23.096;2023-05-23T05:23:09;92024.34;;;28.46;29.51
61963;BME280;47927;42.646;23.096;2023-05-23T05:25:36;92022.31;;;31.10;25.84
61963;BME280;47927;42.646;23.096;2023-05-23T05:28:03;91944.63;;;31.89;24.15
61963;BME280;47927;42.646;23.096;2023-05-23T05:30:36;91966.81;;;32.37;23.80
61963;BME280;47927;42.646;23.096;2023-05-23T05:33:04;91974.50;;;32.21;23.15
61963;BME280;47927;42.646;23.096;2023-05-23T05:35:30;92029.09;;;33.62;21.71
61963;BME280;47927;42.646;23.096;2023-05-23T05:37:57;92012.22;;;33.12;23.63
61963;BME280;47927;42.646;23.096;2023-05-23T05:40:23;92026.72;;;35.32;20.81
61963;BME280;47927;42.646;23.096;2023-05-23T05:42:49;92033.44;;;36.47;19.26
61963;BME280;47927;42.646;23.096;2023-05-23T05:45:15;91960.31;;;36.42;18.51
61963;BME280;47927;42.646;23.096;2023-05-23T05:47:43;92026.34;;;37.80;17.75
61963;BME280;47927;42.646;23.096;2023-05-23T05:50:08;92024.38;;;38.47;17.48
61963;BME280;47927;42.646;23.096;2023-05-23T05:52:36;92037.06;;;39.29;16.89
61963;BME280;47927;42.646;23.096;2023-05-23T05:55:06;92039.44;;;38.71;16.78
61963;BME280;47927;42.646;23.096;2023-05-23T05:57:33;92039.22;;;39.23;17.19
61963;BME280;47927;42.646;23.096;2023-05-23T06:00:00;91999.91;;;37.44;17.85
61963;BME280;47927;42.646;23.096;2023-05-23T06:02:26;92038.38;;;37.56;17.72
61963;BME280;47927;42.646;23.096;2023-05-23T06:04:51;92050.00;;;38.98;17.69
61963;BME280;47927;42.646;23.096;2023-05-23T06:07:17;92045.47;;;38.03;17.77
61963;BME280;47927;42.646;23.096;2023-05-23T06:09:44;91987.16;;;38.96;16.40
61963;BME280;47927;42.646;23.096;2023-05-23T06:12:10;92017.13;;;40.48;15.66
61963;BME280;47927;42.646;23.096;2023-05-23T06:14:35;92022.22;;;40.76;15.46
61963;BME280;47927;42.646;23.096;2023-05-23T06:17:02;92050.06;;;40.75;16.20
61963;BME280;47927;42.646;23.096;2023-05-23T06:19:27;92045.59;;;41.12;13.50
61963;BME280;47927;42.646;23.096;2023-05-23T06:21:53;92044.06;;;40.11;14.45
61963;BME280;47927;42.646;23.096;2023-05-23T06:24:20;92037.94;;;40.68;13.71
61963;BME280;47927;42.646;23.096;2023-05-23T06:26:46;92042.97;;;39.66;14.33
61963;BME280;47927;42.646;23.096;2023-05-23T06:29:12;92042.50;;;39.37;14.46
61963;BME280;47927;42.646;23.096;2023-05-23T06:31:38;92042.69;;;40.35;14.03
61963;BME280;47927;42.646;23.096;2023-05-23T06:34:04;92019.00;;;39.57;14.54
61963;BME280;47927;42.646;23.096;2023-05-23T06:36:29;92025.69;;;40.44;13.50
61963;BME280;47927;42.646;23.096;2023-05-23T06:38:56;92048.84;;;41.36;13.78
61963;BME280;47927;42.646;23.096;2023-05-23T06:41:21;92057.03;;;41.88;13.19
61963;BME280;47927;42.646;23.096;2023-05-23T06:43:47;92050.47;;;42.36;12.92
61963;BME280;47927;42.646;23.096;2023-05-23T06:46:20;92048.75;;;42.13;13.02
61963;BME280;47927;42.646;23.096;2023-05-23T06:48:45;92017.03;;;42.10;12.81
61963;BME280;47927;42.646;23.096;2023-05-23T06:51:11;92047.31;;;42.39;12.32
61963;BME280;47927;42.646;23.096;2023-05-23T06:53:37;92013.09;;;40.99;13.58
61963;BME280;47927;42.646;23.096;2023-05-23T06:56:02;92044.47;;;39.44;15.32
61963;BME280;47927;42.646;23.096;2023-05-23T06:58:33;91974.78;;;39.18;15.03
61963;BME280;47927;42.646;23.096;2023-05-23T07:01:00;92040.06;;;40.12;14.37
61963;BME280;47927;42.646;23.096;2023-05-23T07:03:30;92041.84;;;38.00;15.86
61963;BME280;47927;42.646;23.096;2023-05-23T07:05:59;92012.47;;;37.99;15.90
61963;BME280;47927;42.646;23.096;2023-05-23T07:08:25;91958.28;;;35.32;18.30
61963;BME280;47927;42.646;23.096;2023-05-23T07:10:57;91978.34;;;35.50;18.75
61963;BME280;47927;42.646;23.096;2023-05-23T07:13:38;92040.25;;;35.32;18.02
61963;BME280;47927;42.646;23.096;2023-05-23T07:16:03;92027.50;;;35.54;18.92
61963;BME280;47927;42.646;23.096;2023-05-23T07:18:31;91989.97;;;34.52;18.42
61963;BME280;47927;42.646;23.096;2023-05-23T07:20:57;92030.47;;;35.29;18.63
61963;BME280;47927;42.646;23.096;2023-05-23T07:23:22;91976.63;;;34.08;19.09
61963;BME280;47927;42.646;23.096;2023-05-23T07:25:49;92025.16;;;35.10;18.92
61963;BME280;47927;42.646;23.096;2023-05-23T07:28:23;92003.38;;;36.03;17.91
61963;BME280;47927;42.646;23.096;2023-05-23T07:30:49;92008.34;;;37.25;17.12
61963;BME280;47927;42.646;23.096;2023-05-23T07:33:15;92024.72;;;37.12;17.64
61963;BME280;47927;42.646;23.096;2023-05-23T07:35:43;91999.81;;;37.57;16.93
61963;BME280;47927;42.646;23.096;2023-05-23T07:38:09;92004.56;;;37.36;16.35
61963;BME280;47927;42.646;23.096;2023-05-23T07:40:35;92028.16;;;35.07;17.56
61963;BME280;47927;42.646;23.096;2023-05-23T07:43:03;92026.94;;;35.08;17.77
61963;BME280;47927;42.646;23.096;2023-05-23T07:45:29;91983.56;;;34.68;18.42
61963;BME280;47927;42.646;23.096;2023-05-23T07:47:54;91991.16;;;32.26;20.09
61963;BME280;47927;42.646;23.096;2023-05-23T07:50:20;92023.38;;;33.84;20.34
61963;BME280;47927;42.646;23.096;2023-05-23T07:52:47;92022.97;;;33.80;19.41
61963;BME280;47927;42.646;23.096;2023-05-23T07:55:15;92024.81;;;35.67;17.35
61963;BME280;47927;42.646;23.096;2023-05-23T07:57:41;91981.03;;;36.11;17.08
61963;BME280;47927;42.646;23.096;2023-05-23T08:00:08;91997.41;;;36.47;17.23
61963;BME280;47927;42.646;23.096;2023-05-23T08:02:40;91996.63;;;35.83;17.11
61963;BME280;47927;42.646;23.096;2023-05-23T08:05:08;92006.16;;;34.70;18.71
61963;BME280;47927;42.646;23.096;2023-05-23T08:07:35;92023.72;;;35.83;17.46
61963;BME280;47927;42.646;23.096;2023-05-23T08:10:02;92022.97;;;36.72;16.32
61963;BME280;47927;42.646;23.096;2023-05-23T08:12:28;92000.03;;;37.31;16.47
61963;BME280;47927;42.646;23.096;2023-05-23T08:15:04;92009.38;;;35.49;17.12
61963;BME280;47927;42.646;23.096;2023-05-23T08:17:37;92023.59;;;34.56;18.83
61963;BME280;47927;42.646;23.096;2023-05-23T08:20:02;92024.44;;;34.32;18.65
61963;BME280;47927;42.646;23.096;2023-05-23T08:22:29;92002.94;;;34.72;18.60
61963;BME280;47927;42.646;23.096;2023-05-23T08:24:56;92011.38;;;34.36;19.04
61963;BME280;47927;42.646;23.096;2023-05-23T08:27:23;92021.88;;;34.85;17.89
61963;BME280;47927;42.646;23.096;2023-05-23T08:29:53;91989.59;;;34.61;17.10
61963;BME280;47927;42.646;23.096;2023-05-23T08:32:20;91963.09;;;33.38;17.71
61963;BME280;47927;42.646;23.096;2023-05-23T08:34:46;92014.50;;;33.70;17.18
61963;BME280;47927;42.646;23.096;2023-05-23T08:37:13;91908.31;;;33.75;17.70
61963;BME280;47927;42.646;23.096;2023-05-23T08:39:39;91978.06;;;33.77;17.96
61963;BME280;47927;42.646;23.096;2023-05-23T08:42:30;92027.81;;;33.00;18.10
61963;BME280;47927;42.646;23.096;2023-05-23T08:44:56;91994.91;;;32.47;18.24
61963;BME280;47927;42.646;23.096;2023-05-23T08:47:22;91936.84;;;30.63;20.49
61963;BME280;47927;42.646;23.096;2023-05-23T08:49:56;92005.97;;;32.43;19.88
61963;BME280;47927;42.646;23.096;2023-05-23T08:52:26;92015.38;;;32.61;19.47
61963;BME280;47927;42.646;23.096;2023-05-23T08:54:56;92001.38;;;32.93;18.72
61963;BME280;47927;42.646;23.096;2023-05-23T08:57:23;91982.25;;;33.16;18.21
61963;BME280;47927;42.646;23.096;2023-05-23T08:59:55;91941.31;;;33.49;19.04
61963;BME280;47927;42.646;23.096;2023-05-23T09:02:23;92016.34;;;33.38;18.76
61963;BME280;47927;42.646;23.096;2023-05-23T09:04:53;92013.91;;;32.90;19.14
61963;BME280;47927;42.646;23.096;2023-05-23T09:07:21;91893.56;;;31.37;20.45
61963;BME280;47927;42.646;23.096;2023-05-23T09:09:49;92017.97;;;31.65;19.23
61963;BME280;47927;42.646;23.096;2023-05-23T09:12:16;92012.00;;;32.25;20.19
61963;BME280;47927;42.646;23.096;2023-05-23T09:14:44;91997.59;;;33.02;18.91
61963;BME280;47927;42.646;23.096;2023-05-23T09:17:14;92007.44;;;33.24;19.09
61963;BME280;47927;42.646;23.096;2023-05-23T09:19:41;92006.84;;;32.57;19.42
61963;BME280;47927;42.646;23.096;2023-05-23T09:22:24;91942.19;;;30.86;20.24
61963;BME280;47927;42.646;23.096;2023-05-23T09:25:13;92010.69;;;30.34;20.00
61963;BME280;47927;42.646;23.096;2023-05-23T09:27:41;91998.19;;;30.65;21.52
61963;BME280;47927;42.646;23.096;2023-05-23T09:30:09;92015.78;;;30.10;21.58
61963;BME280;47927;42.646;23.096;2023-05-23T09:32:35;92019.69;;;30.09;21.39
61963;BME280;47927;42.646;23.096;2023-05-23T09:35:03;91998.97;;;28.78;22.61
61963;BME280;47927;42.646;23.096;2023-05-23T09:37:30;91995.97;;;28.65;23.44
61963;BME280;47927;42.646;23.096;2023-05-23T09:40:01;91992.22;;;29.48;23.92
61963;BME280;47927;42.646;23.096;2023-05-23T09:42:31;92007.47;;;30.70;21.24
61963;BME280;47927;42.646;23.096;2023-05-23T09:45:00;92008.34;;;29.00;21.90
61963;BME280;47927;42.646;23.096;2023-05-23T09:47:28;91891.34;;;28.05;23.32
61963;BME280;47927;42.646;23.096;2023-05-23T09:49:54;91992.91;;;28.14;23.57
61963;BME280;47927;42.646;23.096;2023-05-23T09:52:20;91993.88;;;28.80;23.72
61963;BME280;47927;42.646;23.096;2023-05-23T09:54:47;91976.59;;;26.58;25.70
61963;BME280;47927;42.646;23.096;2023-05-23T09:57:14;91978.69;;;26.19;27.37
61963;BME280;47927;42.646;23.096;2023-05-23T09:59:41;91990.81;;;26.34;26.13
61963;BME280;47927;42.646;23.096;2023-05-23T10:02:15;91966.97;;;26.31;25.86
61963;BME280;47927;42.646;23.096;2023-05-23T10:04:41;91984.41;;;27.17;26.21
61963;BME280;47927;42.646;23.096;2023-05-23T10:07:17;91922.25;;;26.46;25.04
61963;BME280;47927;42.646;23.096;2023-05-23T10:09:54;91985.31;;;26.08;28.03
61963;BME280;47927;42.646;23.096;2023-05-23T10:15:03;91911.97;;;23.76;28.83
61963;BME280;47927;42.646;23.096;2023-05-23T10:20:29;91978.88;;;26.15;28.03
61963;BME280;47927;42.646;23.096;2023-05-23T10:23:01;91978.94;;;26.71;25.73
61963;BME280;47927;42.646;23.096;2023-05-23T10:25:27;91965.31;;;26.33;24.59
61963;BME280;47927;42.646;23.096;2023-05-23T10:27:58;91975.97;;;26.84;26.23
61963;BME280;47927;42.646;23.096;2023-05-23T10:30:27;91976.84;;;26.95;25.35
61963;BME280;47927;42.646;23.096;2023-05-23T10:32:54;91924.41;;;25.92;26.01
61963;BME280;47927;42.646;23.096;2023-05-23T10:38:25;91962.84;;;25.56;28.23
61963;BME280;47927;42.646;23.096;2023-05-23T10:46:49;91959.22;;;25.14;27.83
61963;BME280;47927;42.646;23.096;2023-05-23T10:49:16;91907.84;;;24.90;28.39
61963;BME280;47927;42.646;23.096;2023-05-23T10:51:42;91962.38;;;24.22;29.04
61963;BME280;47927;42.646;23.096;2023-05-23T10:54:11;91957.66;;;24.50;28.04
61963;BME280;47927;42.646;23.096;2023-05-23T10:56:36;91888.09;;;24.58;26.77
61963;BME280;47927;42.646;23.096;2023-05-23T10:59:04;91974.66;;;25.94;26.32
61963;BME280;47927;42.646;23.096;2023-05-23T11:01:30;91957.31;;;25.30;26.81
61963;BME280;47927;42.646;23.096;2023-05-23T11:03:56;91950.22;;;25.02;27.75
61963;BME280;47927;42.646;23.096;2023-05-23T11:06:38;91961.38;;;26.14;26.71
61963;BME280;47927;42.646;23.096;2023-05-23T11:09:16;91897.06;;;24.36;27.39
61963;BME280;47927;42.646;23.096;2023-05-23T11:14:15;91909.38;;;24.00;28.44
61963;BME280;47927;42.646;23.096;2023-05-23T11:16:42;91949.84;;;24.71;27.99
61963;BME280;47927;42.646;23.096;2023-05-23T11:21:48;91956.88;;;25.61;26.42
61963;BME280;47927;42.646;23.096;2023-05-23T11:24:15;91949.69;;;25.67;25.87
61963;BME280;47927;42.646;23.096;2023-05-23T11:26:51;91903.72;;;25.04;26.96
61963;BME280;47927;42.646;23.096;2023-05-23T11:29:17;91887.31;;;23.66;27.20
61963;BME280;47927;42.646;23.096;2023-05-23T11:31:43;91951.84;;;24.28;28.79
61963;BME280;47927;42.646;23.096;2023-05-23T11:34:10;91923.28;;;23.95;28.62
61963;BME280;47927;42.646;23.096;2023-05-23T11:36:36;91950.41;;;23.75;28.69
61963;BME280;47927;42.646;23.096;2023-05-23T11:39:02;91871.00;;;23.92;28.05
61963;BME280;47927;42.646;23.096;2023-05-23T11:41:29;91935.50;;;24.44;27.67
61963;BME280;47927;42.646;23.096;2023-05-23T11:43:55;91938.47;;;24.46;28.15
61963;BME280;47927;42.646;23.096;2023-05-23T11:46:20;91935.53;;;24.35;27.75
61963;BME280;47927;42.646;23.096;2023-05-23T11:48:47;91879.38;;;24.00;27.14
61963;BME280;47927;42.646;23.096;2023-05-23T11:51:14;91920.88;;;24.88;26.62
61963;BME280;47927;42.646;23.096;2023-05-23T11:53:40;91818.50;;;24.41;27.22
61963;BME280;47927;42.646;23.096;2023-05-23T11:56:05;91923.84;;;25.29;26.42
61963;BME280;47927;42.646;23.096;2023-05-23T11:58:36;91871.94;;;24.37;27.83
61963;BME280;47927;42.646;23.096;2023-05-23T12:01:03;91899.03;;;24.26;28.48
61963;BME280;47927;42.646;23.096;2023-05-23T12:03:30;91890.94;;;24.54;30.09
61963;BME280;47927;42.646;23.096;2023-05-23T12:05:56;91843.81;;;24.99;27.39
61963;BME280;47927;42.646;23.096;2023-05-23T12:08:22;91905.91;;;25.29;26.80
61963;BME280;47927;42.646;23.096;2023-05-23T12:10:56;91910.66;;;24.38;27.51
61963;BME280;47927;42.646;23.096;2023-05-23T12:13:27;91912.13;;;23.63;28.15
61963;BME280;47927;42.646;23.096;2023-05-23T12:15:58;91911.69;;;24.41;28.45
61963;BME280;47927;42.646;23.096;2023-05-23T12:18:26;91860.03;;;25.25;26.54
61963;BME280;47927;42.646;23.096;2023-05-23T12:20:53;91871.44;;;25.26;25.98
61963;BME280;47927;42.646;23.096;2023-05-23T12:23:22;91912.25;;;25.76;26.29
61963;BME280;47927;42.646;23.096;2023-05-23T12:25:52;91821.03;;;25.57;26.07
61963;BME280;47927;42.646;23.096;2023-05-23T12:28:18;91917.41;;;26.09;25.95
61963;BME280;47927;42.646;23.096;2023-05-23T12:30:45;91861.41;;;24.43;27.21
61963;BME280;47927;42.646;23.096;2023-05-23T12:33:10;91893.06;;;24.65;28.32
61963;BME280;47927;42.646;23.096;2023-05-23T12:35:36;91856.00;;;23.01;29.19
61963;BME280;47927;42.646;23.096;2023-05-23T12:38:05;91890.47;;;23.98;28.94
61963;BME280;47927;42.646;23.096;2023-05-23T12:40:31;91870.03;;;24.04;28.26
61963;BME280;47927;42.646;23.096;2023-05-23T12:42:57;91810.97;;;23.06;27.86
61963;BME280;47927;42.646;23.096;2023-05-23T12:45:29;91869.56;;;22.75;30.32
61963;BME280;47927;42.646;23.096;2023-05-23T12:47:55;91843.44;;;23.10;29.93
61963;BME280;47927;42.646;23.096;2023-05-23T12:50:21;91794.50;;;23.78;28.95
61963;BME280;47927;42.646;23.096;2023-05-23T12:52:47;91742.66;;;23.97;28.15
61963;BME280;47927;42.646;23.096;2023-05-23T12:55:12;91786.00;;;24.61;27.01
61963;BME280;47927;42.646;23.096;2023-05-23T12:57:38;91829.94;;;24.56;27.54
61963;BME280;47927;42.646;23.096;2023-05-23T13:00:04;91876.19;;;24.44;27.66
61963;BME280;47927;42.646;23.096;2023-05-23T13:02:31;91881.47;;;23.96;28.21
61963;BME280;47927;42.646;23.096;2023-05-23T13:04:56;91875.41;;;23.43;28.86
61963;BME280;47927;42.646;23.096;2023-05-23T13:07:22;91865.16;;;24.27;28.11
61963;BME280;47927;42.646;23.096;2023-05-23T13:09:48;91769.41;;;24.18;28.23
61963;BME280;47927;42.646;23.096;2023-05-23T13:12:14;91868.88;;;24.92;26.37
61963;BME280;47927;42.646;23.096;2023-05-23T13:14:40;91888.19;;;25.56;27.12
61963;BME280;47927;42.646;23.096;2023-05-23T13:17:06;91793.16;;;23.40;27.54